Time;durP1;ratioP1;P1;durP2;ratioP2;P2;SDS_P1;SDS_P2;PMS_P1;PMS_P2;Temp;Humidity;BMP_temperature;BMP_pressure;BME280_temperature;BME280_humidity;BME280_pressure;Samples;Min_cycle;Max_cycle;Signal;HPM_P1;HPM_P2
2022/05/13 00:01:36;;;;;;;1.23;1.10;;;13.80;58.60;;;;;;603180;238;26844;-78
2022/05/13 00:04:03;;;;;;;1.98;1.15;;;13.70;58.60;;;;;;604471;237;26602;-78
2022/05/13 00:06:31;;;;;;;1.02;1.02;;;13.70;58.70;;;;;;604477;238;26595;-77
2022/05/13 00:08:59;;;;;;;1.30;1.20;;;13.60;58.70;;;;;;606945;236;26647;-78
2022/05/13 00:11:26;;;;;;;1.27;1.17;;;13.60;58.80;;;;;;608015;235;26856;-77
2022/05/13 00:13:53;;;;;;;2.30;1.37;;;13.50;59.00;;;;;;603681;237;26611;-77
2022/05/13 00:16:20;;;;;;;1.33;1.23;;;13.50;59.10;;;;;;602249;236;27170;-77
2022/05/13 00:18:48;;;;;;;1.25;1.15;;;13.40;59.30;;;;;;604122;236;26581;-77
2022/05/13 00:21:15;;;;;;;1.83;1.02;;;13.30;59.50;;;;;;601488;236;26874;-77
2022/05/13 00:23:42;;;;;;;1.30;1.20;;;13.30;59.70;;;;;;601527;238;26639;-77
2022/05/13 00:26:09;;;;;;;1.67;1.37;;;13.30;59.90;;;;;;601459;237;26869;-76
2022/05/13 00:28:36;;;;;;;2.05;1.27;;;13.20;60.10;;;;;;603540;236;26660;-77
2022/05/13 00:31:04;;;;;;;1.37;1.00;;;13.20;60.10;;;;;;602956;237;26876;-77
2022/05/13 00:33:31;;;;;;;1.37;1.27;;;13.20;60.30;;;;;;605041;236;26600;-77
2022/05/13 00:35:58;;;;;;;1.83;1.15;;;13.20;60.80;;;;;;603882;235;26845;-77
2022/05/13 00:38:25;;;;;;;1.67;1.05;;;13.20;61.00;;;;;;606228;235;26612;-76
2022/05/13 00:40:53;;;;;;;1.10;1.05;;;13.20;61.40;;;;;;604544;237;27225;-77
2022/05/13 00:43:40;;;;;;;2.08;1.20;;;13.20;61.40;;;;;;603741;236;26593;-77
2022/05/13 00:46:07;;;;;;;2.00;1.48;;;13.20;61.40;;;;;;605397;236;26682;-77
2022/05/13 00:48:34;;;;;;;1.23;1.23;;;13.20;62.10;;;;;;606794;236;26834;-77
2022/05/13 00:51:02;;;;;;;1.17;1.10;;;13.10;62.00;;;;;;605822;235;26581;-77
2022/05/13 00:53:30;;;;;;;1.45;1.00;;;13.10;62.00;;;;;;603835;236;26602;-77
2022/05/13 00:55:57;;;;;;;1.50;1.40;;;13.10;62.50;;;;;;601782;237;26850;-77
2022/05/13 00:58:24;;;;;;;1.75;1.42;;;13.10;62.70;;;;;;603697;237;26591;-77
2022/05/13 01:00:52;;;;;;;1.70;1.48;;;13.10;63.00;;;;;;604543;232;27211;-77
2022/05/13 01:03:20;;;;;;;1.48;1.20;;;13.10;63.40;;;;;;604106;237;26567;-77
2022/05/13 01:05:46;;;;;;;1.25;1.10;;;13.10;63.60;;;;;;601819;235;26894;-77
2022/05/13 01:08:14;;;;;;;1.30;1.30;;;13.00;63.80;;;;;;611236;234;26641;-78
2022/05/13 01:10:41;;;;;;;1.50;1.37;;;13.00;64.20;;;;;;590528;243;26866;-77
2022/05/13 01:13:08;;;;;;;1.33;1.23;;;13.00;64.20;;;;;;582185;245;26679;-77
2022/05/13 01:15:35;;;;;;;2.40;1.30;;;13.00;64.50;;;;;;593082;240;26894;-78
2022/05/13 01:18:06;;;;;;;1.62;1.23;;;13.00;64.80;;;;;;605388;236;26590;-78
2022/05/13 01:20:37;;;;;;;1.80;1.35;;;12.90;65.10;;;;;;603803;235;26834;-77
2022/05/13 01:23:05;;;;;;;1.30;1.20;;;12.90;65.20;;;;;;605257;236;26623;-78
2022/05/13 01:25:33;;;;;;;1.30;1.20;;;12.80;65.60;;;;;;608915;235;26553;-77
2022/05/13 01:28:09;;;;;;;1.35;1.20;;;12.80;66.00;;;;;;604061;236;26875;-77
2022/05/13 01:30:36;;;;;;;1.52;1.33;;;12.70;66.50;;;;;;602971;237;26589;-77
2022/05/13 01:33:03;;;;;;;1.27;1.20;;;12.80;66.90;;;;;;603826;236;26820;-77
2022/05/13 01:35:31;;;;;;;1.17;1.08;;;12.80;66.80;;;;;;602096;236;26611;-77
2022/05/13 01:37:58;;;;;;;1.30;1.30;;;12.70;66.80;;;;;;603933;238;26585;-77
2022/05/13 01:40:26;;;;;;;1.60;1.50;;;12.80;67.00;;;;;;608073;235;26567;-77
2022/05/13 01:42:54;;;;;;;1.58;1.48;;;12.70;67.80;;;;;;604301;236;26606;-77
2022/05/13 01:45:22;;;;;;;1.58;1.48;;;12.70;67.40;;;;;;604996;237;26588;-77
2022/05/13 01:47:50;;;;;;;1.20;1.17;;;12.70;67.80;;;;;;604337;235;26613;-78
2022/05/13 01:50:17;;;;;;;2.10;1.50;;;12.70;67.80;;;;;;611723;234;26590;-77
2022/05/13 01:52:44;;;;;;;1.33;1.23;;;12.80;67.80;;;;;;611556;234;26592;-77
2022/05/13 01:55:11;;;;;;;1.17;1.17;;;12.80;67.70;;;;;;608931;236;26865;-77
2022/05/13 01:57:38;;;;;;;1.80;1.10;;;12.80;67.90;;;;;;602041;237;26601;-78
2022/05/13 02:00:06;;;;;;;1.60;1.35;;;12.80;67.90;;;;;;605585;236;26831;-77
2022/05/13 02:03:44;;;;;;;1.40;1.30;;;12.70;68.20;;;;;;610135;235;26602;-77
2022/05/13 02:05:02;;;;;;;2.35;1.50;;;12.60;68.70;;;;;;601833;235;26874;-77
2022/05/13 02:07:29;;;;;;;1.80;1.60;;;12.60;68.70;;;;;;591123;240;26861;-77
2022/05/13 02:09:56;;;;;;;1.30;1.20;;;12.60;69.00;;;;;;581062;247;26641;-77
2022/05/13 02:12:23;;;;;;;2.17;1.75;;;12.50;69.50;;;;;;581423;245;26686;-77
2022/05/13 02:14:51;;;;;;;1.62;1.45;;;12.50;69.60;;;;;;585993;245;26883;-77
2022/05/13 02:17:18;;;;;;;2.67;1.20;;;12.40;69.80;;;;;;610156;235;26654;-77
2022/05/13 02:19:45;;;;;;;1.37;1.20;;;12.30;70.60;;;;;;603321;235;26845;-77
2022/05/13 02:22:12;;;;;;;3.55;1.48;;;12.30;70.90;;;;;;604781;236;26690;-77
2022/05/13 02:24:39;;;;;;;1.40;1.30;;;12.20;71.20;;;;;;608515;236;26831;-77
2022/05/13 02:27:07;;;;;;;1.62;1.50;;;12.20;71.70;;;;;;609859;236;26581;-77
2022/05/13 02:29:34;;;;;;;1.40;1.30;;;12.10;72.00;;;;;;611700;235;26993;-77
2022/05/13 02:32:01;;;;;;;1.37;1.27;;;12.10;72.50;;;;;;612227;235;26627;-77
2022/05/13 02:34:28;;;;;;;1.70;1.48;;;12.00;73.00;;;;;;604274;235;26847;-77
2022/05/13 02:36:55;;;;;;;2.65;1.70;;;11.90;73.30;;;;;;601545;237;26638;-77
2022/05/13 02:39:22;;;;;;;1.60;1.50;;;11.90;73.90;;;;;;603499;238;26577;-77
2022/05/13 02:41:50;;;;;;;1.50;1.40;;;11.90;74.20;;;;;;604343;238;26572;-77
2022/05/13 02:44:18;;;;;;;1.33;1.23;;;11.80;74.00;;;;;;604562;232;26624;-77
2022/05/13 02:46:47;;;;;;;1.50;1.40;;;11.80;74.90;;;;;;604566;237;26570;-77
2022/05/13 02:49:14;;;;;;;1.50;1.20;;;11.80;75.30;;;;;;602622;236;26684;-76
2022/05/13 02:51:42;;;;;;;1.55;1.45;;;11.80;75.40;;;;;;601557;237;26651;-76
2022/05/13 02:54:10;;;;;;;1.42;1.33;;;11.80;75.40;;;;;;601838;238;26653;-77
2022/05/13 02:56:38;;;;;;;1.70;1.60;;;11.70;75.20;;;;;;603291;237;26818;-77
2022/05/13 02:59:04;;;;;;;2.12;1.48;;;11.80;75.60;;;;;;603196;237;26554;-77
2022/05/13 03:01:32;;;;;;;1.37;1.27;;;11.80;75.60;;;;;;608482;235;26842;-77
2022/05/13 03:03:59;;;;;;;2.75;1.40;;;11.70;75.80;;;;;;610048;234;26662;-77
2022/05/13 03:06:26;;;;;;;1.85;1.73;;;11.60;76.20;;;;;;604926;234;26964;-77
2022/05/13 03:08:53;;;;;;;1.65;1.55;;;11.60;76.90;;;;;;606522;235;26578;-77
2022/05/13 03:11:21;;;;;;;1.60;1.50;;;11.60;77.10;;;;;;605088;237;27283;-77
2022/05/13 03:13:49;;;;;;;1.35;1.27;;;11.60;77.60;;;;;;606396;235;26677;-77
2022/05/13 03:16:19;;;;;;;1.87;1.37;;;11.60;78.10;;;;;;603445;234;26582;-77
2022/05/13 03:18:46;;;;;;;1.50;1.40;;;11.60;78.00;;;;;;603342;236;26550;-77
2022/05/13 03:21:14;;;;;;;2.37;1.65;;;11.60;79.20;;;;;;604821;236;26603;-77
2022/05/13 03:23:42;;;;;;;1.60;1.50;;;11.60;79.20;;;;;;607333;234;26612;-77
2022/05/13 03:26:08;;;;;;;1.70;1.60;;;11.60;79.00;;;;;;610005;235;26599;-76
2022/05/13 03:28:36;;;;;;;1.90;1.50;;;11.60;78.90;;;;;;610378;235;26821;-77
2022/05/13 03:31:03;;;;;;;1.65;1.50;;;11.50;78.80;;;;;;607763;236;26715;-76
2022/05/13 03:33:30;;;;;;;2.28;1.52;;;11.50;79.20;;;;;;608241;235;26862;-76
2022/05/13 03:35:58;;;;;;;2.60;1.60;;;11.60;78.40;;;;;;606895;235;26610;-65
2022/05/13 03:38:25;;;;;;;1.45;1.25;;;11.60;79.10;;;;;;601710;236;26610;-65
2022/05/13 03:40:52;;;;;;;1.40;1.30;;;11.60;78.40;;;;;;601634;236;26882;-65
2022/05/13 03:43:20;;;;;;;1.70;1.60;;;11.70;79.50;;;;;;613239;233;26683;-65
2022/05/13 03:45:48;;;;;;;1.70;1.37;;;11.70;79.60;;;;;;612409;234;26855;-66
2022/05/13 03:48:16;;;;;;;1.60;1.50;;;11.70;79.60;;;;;;601974;235;26820;-65
2022/05/13 03:50:43;;;;;;;1.50;1.40;;;11.70;79.30;;;;;;603337;236;27174;-64
2022/05/13 03:53:10;;;;;;;1.62;1.30;;;11.70;80.00;;;;;;603215;234;26637;-64
2022/05/13 03:55:37;;;;;;;1.30;1.30;;;11.80;80.10;;;;;;604334;237;26596;-64
2022/05/13 03:58:05;;;;;;;2.00;1.55;;;11.80;79.90;;;;;;605395;235;26589;-64
2022/05/13 04:00:33;;;;;;;1.98;1.50;;;11.80;80.20;;;;;;604749;236;26598;-64
2022/05/13 04:03:01;;;;;;;1.60;1.50;;;11.80;80.20;;;;;;601769;236;26666;-64
2022/05/13 04:10:35;;;;;;;1.35;1.20;;;11.90;80.10;;;;;;602716;237;26816;-65
2022/05/13 04:18:08;;;;;;;1.23;1.23;;;12.10;79.30;;;;;;604718;235;26637;-65
2022/05/13 04:20:36;;;;;;;2.50;1.80;;;12.10;80.20;;;;;;602586;236;26581;-66
2022/05/13 04:23:03;;;;;;;1.40;1.30;;;12.10;80.20;;;;;;602255;238;26610;-65
2022/05/13 04:25:30;;;;;;;2.50;1.50;;;12.20;79.20;;;;;;609916;236;26648;-66
2022/05/13 04:27:57;;;;;;;1.45;1.30;;;12.20;78.80;;;;;;608840;236;26667;-65
2022/05/13 04:30:25;;;;;;;3.05;1.40;;;12.30;78.50;;;;;;602045;235;26594;-64
2022/05/13 04:32:53;;;;;;;7.22;1.60;;;12.40;78.20;;;;;;604303;235;26618;-67
2022/05/13 04:35:21;;;;;;;2.85;1.50;;;12.40;77.90;;;;;;602351;235;26589;-66
2022/05/13 04:37:48;;;;;;;1.50;1.40;;;12.50;78.90;;;;;;604123;236;26597;-66
2022/05/13 04:40:16;;;;;;;3.97;1.65;;;12.50;78.80;;;;;;608833;236;26636;-67
2022/05/13 04:45:17;;;;;;;1.52;1.40;;;12.60;76.70;;;;;;607413;236;26878;-66
2022/05/13 04:50:17;;;;;;;2.40;1.58;;;12.90;75.40;;;;;;608115;234;26594;-66
2022/05/13 04:52:45;;;;;;;5.37;1.70;;;13.00;75.10;;;;;;602868;237;26634;-66
2022/05/13 04:55:13;;;;;;;2.97;1.65;;;13.00;75.60;;;;;;603607;235;26608;-66
2022/05/13 04:57:41;;;;;;;3.95;2.10;;;13.10;74.60;;;;;;601955;236;26640;-66
2022/05/13 05:00:09;;;;;;;1.70;1.60;;;13.10;74.60;;;;;;608350;236;26595;-65
2022/05/13 05:02:36;;;;;;;3.42;1.70;;;13.20;74.50;;;;;;607163;235;26617;-66
2022/05/13 05:05:04;;;;;;;2.72;2.20;;;13.30;74.20;;;;;;603499;235;26917;-66
2022/05/13 05:07:31;;;;;;;4.80;2.47;;;13.40;73.80;;;;;;604859;236;26662;-66
2022/05/13 05:09:58;;;;;;;1.87;1.77;;;13.50;73.80;;;;;;604641;235;26894;-66
2022/05/13 05:12:26;;;;;;;4.80;1.77;;;13.60;72.40;;;;;;603644;236;26617;-65
2022/05/13 05:14:53;;;;;;;2.00;1.90;;;13.70;73.00;;;;;;604836;235;26840;-65
2022/05/13 05:17:20;;;;;;;8.02;2.95;;;13.80;71.80;;;;;;604067;236;26582;-65
2022/05/13 05:19:47;;;;;;;6.15;2.28;;;13.90;71.30;;;;;;608863;235;26859;-65
2022/05/13 05:22:15;;;;;;;2.03;1.85;;;14.00;71.60;;;;;;604344;234;26987;-65
2022/05/13 05:24:43;;;;;;;6.05;3.40;;;14.20;72.00;;;;;;608590;234;26617;-66
2022/05/13 05:27:12;;;;;;;2.28;1.80;;;14.30;71.10;;;;;;606331;235;26654;-67
2022/05/13 05:29:39;;;;;;;3.37;1.85;;;14.50;69.90;;;;;;603551;235;26595;-68
2022/05/13 05:32:07;;;;;;;5.97;2.00;;;14.50;69.80;;;;;;604251;235;26604;-65
2022/05/13 05:34:34;;;;;;;12.23;2.33;;;14.60;69.30;;;;;;607271;233;26562;-69
2022/05/13 05:37:01;;;;;;;30.50;4.25;;;14.70;69.30;;;;;;603273;235;26822;-71
2022/05/13 05:39:28;;;;;;;22.15;3.20;;;14.80;68.70;;;;;;605617;235;26611;-66
2022/05/13 05:41:56;;;;;;;5.47;1.90;;;14.90;66.60;;;;;;604106;237;26839;-66
2022/05/13 05:44:23;;;;;;;4.90;2.37;;;15.10;67.00;;;;;;602853;235;26586;-65
2022/05/13 05:46:50;;;;;;;2.42;1.90;;;15.10;66.00;;;;;;607577;236;26874;-65
2022/05/13 05:49:17;;;;;;;6.53;2.72;;;15.20;65.60;;;;;;604995;235;26578;-66
2022/05/13 05:51:44;;;;;;;6.03;2.53;;;15.30;64.70;;;;;;608172;235;27325;-65
2022/05/13 05:59:18;;;;;;;2.00;1.80;;;15.70;63.00;;;;;;603534;233;26830;-65
2022/05/13 06:01:46;;;;;;;3.40;2.50;;;15.80;62.90;;;;;;603275;236;26626;-66
2022/05/13 06:04:12;;;;;;;5.03;2.12;;;15.90;63.10;;;;;;602277;236;27165;-67
2022/05/13 06:06:40;;;;;;;5.22;2.50;;;16.30;62.70;;;;;;607717;236;26610;-66
2022/05/13 06:09:08;;;;;;;2.80;2.10;;;16.40;60.30;;;;;;606420;235;26640;-66
2022/05/13 06:11:37;;;;;;;3.65;2.33;;;16.50;60.70;;;;;;605132;236;26593;-66
2022/05/13 06:14:04;;;;;;;3.12;2.05;;;16.60;60.60;;;;;;607726;235;26687;-65
2022/05/13 06:16:32;;;;;;;2.37;1.90;;;16.80;59.10;;;;;;605039;234;26595;-66
2022/05/13 06:19:00;;;;;;;3.62;2.30;;;16.70;59.00;;;;;;607910;235;27057;-66
2022/05/13 06:21:28;;;;;;;4.05;2.37;;;16.90;58.60;;;;;;606823;235;26607;-65
2022/05/13 06:23:55;;;;;;;4.15;2.20;;;16.90;58.50;;;;;;604179;236;26674;-68
2022/05/13 06:26:22;;;;;;;3.55;2.40;;;16.90;58.70;;;;;;604100;236;26836;-69
2022/05/13 06:28:50;;;;;;;7.25;2.35;;;17.00;57.90;;;;;;604138;236;26646;-65
2022/05/13 06:31:18;;;;;;;4.97;2.20;;;17.00;57.60;;;;;;605923;234;26814;-66
2022/05/13 06:33:45;;;;;;;6.72;2.50;;;17.00;57.10;;;;;;604694;235;26918;-66
2022/05/13 06:36:12;;;;;;;11.80;2.65;;;17.10;57.80;;;;;;605235;234;26638;-66
2022/05/13 06:38:39;;;;;;;5.03;2.15;;;17.10;57.70;;;;;;606972;234;26878;-65
2022/05/13 06:41:06;;;;;;;3.78;2.50;;;17.20;57.70;;;;;;605220;235;26657;-66
2022/05/13 06:43:34;;;;;;;3.30;2.37;;;17.40;57.50;;;;;;606022;235;26867;-65
2022/05/13 06:46:02;;;;;;;2.22;2.00;;;17.70;57.50;;;;;;604730;236;26648;-65
2022/05/13 06:48:29;;;;;;;2.97;2.33;;;17.80;57.10;;;;;;604958;236;26584;-65
2022/05/13 06:50:58;;;;;;;5.25;2.30;;;18.00;56.90;;;;;;605073;235;26606;-65
2022/05/13 06:53:25;;;;;;;3.75;1.90;;;18.00;56.90;;;;;;608668;235;26663;-65
2022/05/13 06:55:52;;;;;;;3.40;2.00;;;18.20;56.70;;;;;;604723;235;27224;-66
2022/05/13 06:58:19;;;;;;;3.45;2.15;;;18.30;56.40;;;;;;605429;236;26588;-66
2022/05/13 07:00:46;;;;;;;3.55;2.30;;;18.50;56.50;;;;;;606451;235;26772;-66
2022/05/13 07:03:14;;;;;;;4.03;2.65;;;18.50;56.00;;;;;;604561;236;26575;-65
2022/05/13 07:05:42;;;;;;;2.80;2.20;;;18.60;56.20;;;;;;603232;237;26549;-65
2022/05/13 07:08:10;;;;;;;3.62;2.40;;;18.70;55.50;;;;;;602707;235;26619;-65
2022/05/13 07:10:39;;;;;;;3.70;2.40;;;18.80;55.10;;;;;;604180;235;26570;-65
2022/05/13 07:13:05;;;;;;;4.43;2.58;;;18.70;55.10;;;;;;603240;236;26855;-65
2022/05/13 07:15:33;;;;;;;2.67;2.20;;;18.20;55.30;;;;;;603994;235;26831;-65
2022/05/13 07:18:00;;;;;;;4.90;2.40;;;18.30;55.50;;;;;;602978;235;26661;-66
2022/05/13 07:20:27;;;;;;;2.65;2.22;;;18.30;55.50;;;;;;603331;234;26599;-66
2022/05/13 07:22:55;;;;;;;2.72;2.50;;;18.50;55.00;;;;;;602347;236;26666;-66
2022/05/13 07:25:23;;;;;;;4.32;2.28;;;18.20;55.60;;;;;;605774;235;26617;-66
2022/05/13 07:27:51;;;;;;;3.83;2.72;;;18.20;56.00;;;;;;604238;232;26653;-65
2022/05/13 07:30:19;;;;;;;2.92;2.60;;;18.50;56.10;;;;;;603752;235;26584;-66
2022/05/13 07:32:47;;;;;;;29.23;6.10;;;18.50;56.20;;;;;;607676;235;26630;-66
2022/05/13 07:35:14;;;;;;;71.65;19.05;;;18.80;55.60;;;;;;604095;236;26647;-68
2022/05/13 07:37:42;;;;;;;56.70;13.98;;;18.80;54.90;;;;;;604883;235;26626;-65
2022/05/13 07:42:44;;;;;;;57.20;11.52;;;18.60;55.70;;;;;;607512;233;26854;-65
2022/05/13 07:45:11;;;;;;;37.95;10.65;;;19.00;55.90;;;;;;605938;234;26613;-67
2022/05/13 07:47:39;;;;;;;44.22;10.48;;;18.70;54.00;;;;;;603301;234;26654;-66
2022/05/13 07:50:08;;;;;;;39.35;9.98;;;18.40;54.00;;;;;;603883;236;26590;-65
2022/05/13 07:52:36;;;;;;;36.88;9.02;;;18.30;53.90;;;;;;609357;235;26580;-65
2022/05/13 07:55:03;;;;;;;30.90;7.68;;;18.20;54.50;;;;;;605326;235;26825;-66
2022/05/13 07:57:30;;;;;;;6.43;3.30;;;18.30;54.60;;;;;;605012;236;26594;-66
2022/05/13 08:02:31;;;;;;;8.60;3.78;;;18.00;55.20;;;;;;602049;238;26602;-66
2022/05/13 08:04:58;;;;;;;55.90;13.55;;;18.00;55.20;;;;;;604549;236;27258;-66
2022/05/13 08:07:25;;;;;;;114.82;25.98;;;18.30;55.20;;;;;;605668;235;26585;-67
2022/05/13 08:09:52;;;;;;;387.40;50.17;;;18.40;55.20;;;;;;606164;234;26825;-66
2022/05/13 08:12:19;;;;;;;1835.37;173.73;;;18.30;55.30;;;;;;607520;235;26591;-66
2022/05/13 08:14:47;;;;;;;1999.90;241.40;;;17.70;56.90;;;;;;604850;236;26623;-66
2022/05/13 08:17:15;;;;;;;131.57;35.10;;;17.70;56.90;;;;;;603019;236;26583;-70
2022/05/13 08:19:42;;;;;;;106.35;33.47;;;17.50;57.60;;;;;;606315;236;26888;-68
2022/05/13 08:22:09;;;;;;;90.22;31.33;;;17.30;57.80;;;;;;604056;236;26585;-69
2022/05/13 08:24:36;;;;;;;92.20;30.95;;;17.30;58.00;;;;;;603919;235;26898;-68
2022/05/13 08:27:04;;;;;;;79.47;29.45;;;17.20;57.90;;;;;;607022;236;26639;-68
2022/05/13 08:29:31;;;;;;;79.35;27.90;;;17.20;57.80;;;;;;602792;238;26621;-68
2022/05/13 08:31:59;;;;;;;69.35;26.48;;;17.00;58.20;;;;;;607186;236;26592;-68
2022/05/13 08:34:27;;;;;;;62.47;24.25;;;17.00;58.20;;;;;;604683;236;26645;-70
2022/05/13 08:36:55;;;;;;;55.00;21.73;;;16.90;58.70;;;;;;606351;236;26639;-70
2022/05/13 08:39:23;;;;;;;56.50;22.62;;;16.80;58.90;;;;;;605834;235;26635;-68
2022/05/13 08:41:56;;;;;;;37.50;16.37;;;16.70;59.40;;;;;;605432;234;26630;-68
2022/05/13 08:44:25;;;;;;;48.97;21.45;;;16.60;59.70;;;;;;602650;234;26647;-69
2022/05/13 08:46:56;;;;;;;40.63;18.92;;;16.50;60.20;;;;;;603863;232;26669;-68
2022/05/13 08:49:35;;;;;;;44.00;18.42;;;16.50;60.90;;;;;;603125;235;27010;-66
2022/05/13 08:53:06;;;;;;;30.80;16.85;;;16.50;60.80;;;;;;611582;234;26867;-65
2022/05/13 08:54:34;;;;;;;35.97;16.58;;;16.70;60.90;;;;;;605261;232;26829;-65
2022/05/13 08:57:01;;;;;;;34.50;15.50;;;16.70;61.10;;;;;;605146;235;26801;-64
2022/05/13 08:59:32;;;;;;;31.25;15.15;;;16.90;61.00;;;;;;607928;235;26612;-65
2022/05/13 09:02:09;;;;;;;25.55;12.82;;;17.40;59.40;;;;;;604965;232;26812;-62
2022/05/13 09:04:37;;;;;;;24.08;10.20;;;17.50;58.90;;;;;;612518;234;26608;-61
2022/05/13 09:07:05;;;;;;;25.40;10.93;;;18.00;58.30;;;;;;609805;235;26618;-60
2022/05/13 09:09:33;;;;;;;13.62;9.18;;;18.30;57.80;;;;;;603391;238;26633;-62
2022/05/13 09:12:01;;;;;;;18.17;10.90;;;18.40;56.90;;;;;;608595;235;26863;-61
2022/05/13 09:14:31;;;;;;;15.50;8.45;;;18.50;56.30;;;;;;604601;235;26976;-61
2022/05/13 09:17:09;;;;;;;11.10;7.03;;;19.10;55.50;;;;;;602211;232;27282;-61
2022/05/13 09:19:36;;;;;;;10.95;6.68;;;19.10;55.50;;;;;;602437;232;26591;-61
2022/05/13 09:22:06;;;;;;;11.80;5.82;;;19.30;54.60;;;;;;603635;238;26582;-62
2022/05/13 09:24:33;;;;;;;8.63;5.20;;;19.20;54.30;;;;;;603123;236;26831;-61
2022/05/13 09:27:01;;;;;;;8.60;5.07;;;19.20;53.20;;;;;;609908;236;26631;-62
2022/05/13 09:29:28;;;;;;;12.37;5.82;;;19.20;52.90;;;;;;607096;236;26925;-62
2022/05/13 09:32:06;;;;;;;12.40;4.70;;;19.40;52.60;;;;;;602852;236;26569;-61
2022/05/13 09:34:35;;;;;;;13.68;4.60;;;19.20;52.30;;;;;;608412;236;26594;-62
2022/05/13 09:37:05;;;;;;;3.90;3.60;;;19.00;52.90;;;;;;602344;235;26631;-61
2022/05/13 09:39:34;;;;;;;5.90;3.17;;;19.10;52.50;;;;;;602543;238;26608;-61
2022/05/13 09:42:14;;;;;;;3.90;2.78;;;18.90;52.30;;;;;;603725;234;26565;-61
2022/05/13 09:44:42;;;;;;;11.12;3.62;;;19.10;52.20;;;;;;605350;232;26584;-61
2022/05/13 09:47:11;;;;;;;9.38;3.87;;;19.20;51.70;;;;;;607682;236;26698;-62
2022/05/13 09:49:39;;;;;;;8.13;3.75;;;19.20;51.70;;;;;;607693;236;26591;-61
2022/05/13 09:52:09;;;;;;;6.95;3.37;;;19.40;51.60;;;;;;602750;236;26855;-62
2022/05/13 09:54:36;;;;;;;6.93;3.03;;;19.40;51.20;;;;;;608718;235;26598;-61
2022/05/13 09:57:05;;;;;;;11.12;3.47;;;19.50;51.80;;;;;;604557;236;26665;-62
2022/05/13 09:59:32;;;;;;;10.13;3.55;;;19.60;51.50;;;;;;604814;236;26582;-62
2022/05/13 10:01:59;;;;;;;4.85;2.65;;;20.00;51.00;;;;;;603372;238;27255;-62
2022/05/13 10:04:26;;;;;;;2.83;2.50;;;19.80;51.30;;;;;;608440;235;26641;-61
2022/05/13 10:07:02;;;;;;;7.75;3.00;;;20.00;51.40;;;;;;603790;236;26974;-61
2022/05/13 10:14:38;;;;;;;4.47;2.65;;;19.10;52.10;;;;;;611018;235;26577;-61
2022/05/13 10:17:10;;;;;;;7.20;2.58;;;19.40;52.00;;;;;;607130;236;26585;-62
2022/05/13 10:19:38;;;;;;;6.30;2.78;;;19.60;52.20;;;;;;607451;236;26564;-63
2022/05/13 10:22:31;;;;;;;7.47;3.17;;;19.90;51.80;;;;;;610427;236;26552;-62
2022/05/13 10:25:03;;;;;;;5.15;2.80;;;20.10;51.50;;;;;;610455;235;26584;-63
2022/05/13 10:27:41;;;;;;;7.15;2.60;;;20.10;51.40;;;;;;607673;236;26646;-61
2022/05/13 10:30:25;;;;;;;6.32;2.60;;;19.80;51.20;;;;;;609087;236;26868;-62
2022/05/13 10:32:53;;;;;;;4.75;2.40;;;19.50;51.90;;;;;;603224;234;26655;-62
2022/05/13 10:35:20;;;;;;;3.40;2.62;;;19.00;51.90;;;;;;609687;234;26851;-62
2022/05/13 10:38:09;;;;;;;5.22;2.58;;;18.40;52.90;;;;;;608238;232;26622;-62
2022/05/13 10:40:36;;;;;;;3.53;2.58;;;18.30;52.90;;;;;;593426;236;26660;-62
2022/05/13 10:43:08;;;;;;;5.43;2.60;;;18.30;53.30;;;;;;606517;236;26843;-62
2022/05/13 10:45:37;;;;;;;5.28;2.28;;;18.10;53.70;;;;;;601487;237;26863;-62
2022/05/13 10:48:23;;;;;;;4.32;2.67;;;18.30;54.80;;;;;;607790;236;26841;-62
2022/05/13 10:50:50;;;;;;;3.78;2.30;;;18.50;54.20;;;;;;606536;236;26598;-63
2022/05/13 10:53:19;;;;;;;2.62;2.22;;;18.60;54.00;;;;;;599897;239;26941;-62
2022/05/13 10:56:07;;;;;;;3.58;2.42;;;18.70;53.60;;;;;;602990;238;26598;-62
2022/05/13 10:58:40;;;;;;;4.68;2.30;;;18.60;53.50;;;;;;601612;235;26655;-62
2022/05/13 11:01:23;;;;;;;5.25;2.25;;;18.50;53.20;;;;;;611282;232;26648;-62
2022/05/13 11:04:09;;;;;;;5.10;2.35;;;18.70;53.20;;;;;;603104;236;26657;-62
2022/05/13 11:07:01;;;;;;;2.70;2.22;;;19.10;52.90;;;;;;608263;235;26596;-62
2022/05/13 11:09:46;;;;;;;4.78;2.42;;;19.50;51.40;;;;;;605855;236;26596;-63
2022/05/13 11:12:22;;;;;;;6.15;2.20;;;19.40;49.80;;;;;;601375;236;26633;-63
2022/05/13 11:14:55;;;;;;;2.72;2.10;;;19.40;49.70;;;;;;601097;239;27020;-62
2022/05/13 11:17:34;;;;;;;3.22;2.28;;;19.40;49.70;;;;;;606580;235;26634;-62
2022/05/13 11:20:03;;;;;;;3.47;2.17;;;19.80;49.30;;;;;;604058;235;26593;-62
2022/05/13 11:22:49;;;;;;;2.53;2.12;;;20.10;47.90;;;;;;611108;234;26608;-61
2022/05/13 11:28:00;;;;;;;3.62;2.10;;;20.60;46.20;;;;;;604703;236;26577;-62
2022/05/13 11:30:29;;;;;;;1.70;1.60;;;20.40;46.50;;;;;;602006;239;26859;-61
2022/05/13 11:32:57;;;;;;;3.15;2.05;;;19.90;46.50;;;;;;601989;239;26636;-61
2022/05/13 11:35:38;;;;;;;6.03;2.25;;;19.90;46.50;;;;;;601834;239;26573;-61
2022/05/13 11:38:02;;;;;;;2.72;1.80;;;19.90;45.90;;;;;;601876;239;26827;-61
2022/05/13 11:40:30;;;;;;;2.92;1.90;;;20.00;46.70;;;;;;601872;239;26556;-61
2022/05/13 11:43:19;;;;;;;3.58;1.92;;;20.10;46.80;;;;;;601566;237;26589;-61
2022/05/13 11:45:58;;;;;;;3.97;2.15;;;20.10;46.80;;;;;;601875;239;26890;-61
2022/05/13 11:48:25;;;;;;;3.15;1.95;;;19.90;45.90;;;;;;601856;239;26595;-61
2022/05/13 11:51:06;;;;;;;3.28;1.73;;;20.50;45.40;;;;;;601802;237;26577;-61
2022/05/13 11:53:43;;;;;;;3.37;2.00;;;20.50;45.40;;;;;;601262;239;26683;-61
2022/05/13 11:56:13;;;;;;;5.70;2.15;;;20.30;45.50;;;;;;604740;236;26839;-62
2022/05/13 11:58:41;;;;;;;3.42;1.95;;;19.90;45.00;;;;;;609954;236;26557;-62
2022/05/13 12:01:09;;;;;;;5.07;2.00;;;19.80;44.70;;;;;;605937;235;26885;-62
2022/05/13 12:03:36;;;;;;;6.87;1.98;;;20.00;45.10;;;;;;603779;236;26638;-64
2022/05/13 12:06:03;;;;;;;8.27;2.25;;;19.90;45.50;;;;;;603667;236;26836;-62
2022/05/13 12:08:39;;;;;;;6.00;2.15;;;19.50;45.80;;;;;;605140;236;26648;-63
2022/05/13 12:11:12;;;;;;;7.57;2.45;;;19.60;45.80;;;;;;605034;235;26646;-63
2022/05/13 12:14:04;;;;;;;6.30;2.35;;;19.50;46.30;;;;;;605826;235;27059;-63
2022/05/13 12:16:36;;;;;;;7.47;2.10;;;19.40;46.70;;;;;;606361;234;26627;-63
2022/05/13 12:19:15;;;;;;;5.35;2.45;;;19.50;46.60;;;;;;604923;235;26649;-62
2022/05/13 12:21:44;;;;;;;4.70;2.25;;;20.00;46.10;;;;;;606844;235;27286;-62
2022/05/13 12:24:26;;;;;;;6.12;2.03;;;20.00;46.10;;;;;;605820;235;26694;-63
2022/05/13 12:27:09;;;;;;;10.27;2.00;;;20.30;45.90;;;;;;605017;235;26653;-61
2022/05/13 12:30:02;;;;;;;6.10;2.03;;;20.40;46.20;;;;;;609375;232;26651;-62
2022/05/13 12:32:36;;;;;;;3.03;1.87;;;20.20;46.50;;;;;;600683;234;26694;-60
2022/05/13 12:37:58;;;;;;;5.57;2.28;;;19.90;46.40;;;;;;607499;235;26883;-61
2022/05/13 12:40:28;;;;;;;4.62;2.03;;;19.70;45.80;;;;;;606243;235;26645;-61
2022/05/13 12:42:59;;;;;;;5.57;2.00;;;19.70;46.10;;;;;;603359;238;26713;-61
2022/05/13 12:45:40;;;;;;;4.65;1.90;;;19.60;46.00;;;;;;605457;235;26593;-61
2022/05/13 12:48:17;;;;;;;5.18;2.37;;;19.70;45.90;;;;;;606412;235;26840;-61
2022/05/13 12:50:50;;;;;;;3.65;1.62;;;19.20;46.00;;;;;;604282;236;26816;-61
2022/05/13 12:53:31;;;;;;;5.75;1.90;;;19.00;46.40;;;;;;604697;234;26582;-61
2022/05/13 12:55:59;;;;;;;6.18;2.00;;;18.80;46.20;;;;;;605450;234;26597;-61
2022/05/13 12:58:26;;;;;;;5.20;1.80;;;18.70;45.90;;;;;;604232;236;27280;-61
2022/05/13 13:00:53;;;;;;;5.10;1.90;;;18.40;46.00;;;;;;605408;236;26576;-61
2022/05/13 13:03:20;;;;;;;3.22;2.00;;;18.20;46.50;;;;;;604073;234;26602;-65
2022/05/13 13:05:51;;;;;;;4.93;1.95;;;18.00;47.40;;;;;;606338;235;26637;-63
2022/05/13 13:08:18;;;;;;;6.45;2.03;;;18.00;47.50;;;;;;605298;235;26645;-63
2022/05/13 13:10:54;;;;;;;3.80;1.98;;;17.90;47.60;;;;;;602869;237;26626;-64
2022/05/13 13:13:22;;;;;;;3.70;1.75;;;17.70;47.20;;;;;;601882;237;26642;-64
2022/05/13 13:15:50;;;;;;;8.48;2.35;;;17.60;47.70;;;;;;601352;233;26917;-63
2022/05/13 13:18:17;;;;;;;5.45;1.87;;;17.40;48.20;;;;;;601315;239;26850;-64
2022/05/13 13:20:50;;;;;;;6.03;2.35;;;17.30;48.50;;;;;;601319;233;26664;-63
2022/05/13 13:23:18;;;;;;;6.28;2.20;;;17.30;49.30;;;;;;601477;237;26644;-64
2022/05/13 13:25:46;;;;;;;6.12;2.00;;;17.30;49.30;;;;;;601626;239;26668;-64
2022/05/13 13:28:14;;;;;;;5.70;1.55;;;17.40;49.50;;;;;;601594;237;26616;-64
2022/05/13 13:30:42;;;;;;;2.53;1.80;;;17.30;49.40;;;;;;601083;235;26624;-64